createdAt,value
2019-01-15T00:00:12.651Z,0.00
2019-01-15T00:01:12.670Z,0.00
2019-01-15T00:02:12.638Z,0.00
2019-01-15T00:03:12.618Z,0.00
2019-01-15T00:04:12.610Z,0.00
2019-01-15T00:05:12.622Z,0.00
2019-01-15T00:06:12.580Z,0.00
2019-01-15T00:07:12.582Z,0.00
2019-01-15T00:08:13.827Z,0.00
2019-01-15T00:09:12.583Z,0.00
2019-01-15T00:10:12.555Z,0.00
2019-01-15T00:11:12.525Z,0.00
2019-01-15T00:12:12.515Z,0.00
2019-01-15T00:13:12.510Z,0.00
2019-01-15T00:14:12.518Z,0.00
2019-01-15T00:15:12.520Z,0.00
2019-01-15T00:16:12.470Z,0.00
2019-01-15T00:17:12.464Z,0.00
2019-01-15T00:18:12.453Z,0.00
2019-01-15T00:19:12.442Z,0.00
2019-01-15T00:20:12.459Z,0.00
2019-01-15T00:21:12.414Z,0.00
2019-01-15T00:22:12.405Z,0.00
2019-01-15T00:23:12.394Z,0.00
2019-01-15T00:24:12.386Z,0.00
2019-01-15T00:25:12.441Z,0.00
2019-01-15T00:26:12.383Z,0.00
2019-01-15T00:27:12.387Z,0.00
2019-01-15T00:28:12.370Z,0.00
2019-01-15T00:29:12.352Z,0.00
2019-01-15T00:30:12.771Z,0.00
2019-01-15T00:31:12.322Z,0.00
2019-01-15T00:32:12.297Z,0.00
2019-01-15T00:33:12.340Z,0.00
2019-01-15T00:34:12.274Z,0.00
2019-01-15T00:35:12.268Z,0.00
2019-01-15T00:36:12.249Z,0.00
2019-01-15T00:37:12.248Z,0.00
2019-01-15T00:38:12.271Z,0.00
2019-01-15T00:39:12.240Z,0.00
2019-01-15T00:40:12.209Z,0.00
2019-01-15T00:41:12.195Z,0.00
2019-01-15T00:42:15.375Z,0.00
2019-01-15T00:43:12.198Z,0.00
2019-01-15T00:44:12.161Z,0.00
2019-01-15T00:45:12.149Z,0.00
2019-01-15T00:46:12.142Z,0.00
2019-01-15T00:47:12.129Z,0.00
2019-01-15T00:48:12.144Z,0.00
2019-01-15T00:49:12.115Z,0.00
2019-01-15T00:50:12.093Z,0.00
2019-01-15T00:51:12.083Z,0.00
2019-01-15T00:52:12.084Z,0.00
2019-01-15T00:53:12.086Z,0.00
2019-01-15T00:54:12.050Z,0.00
2019-01-15T00:55:12.039Z,0.00
2019-01-15T00:56:12.029Z,0.00
2019-01-15T00:57:12.017Z,0.00
2019-01-15T00:58:12.027Z,0.00
2019-01-15T00:59:12.001Z,0.00
2019-01-15T01:00:11.987Z,0.00
2019-01-15T01:01:12.007Z,0.00
2019-01-15T01:02:12.008Z,0.00
2019-01-15T01:03:11.977Z,0.00
2019-01-15T01:04:12.055Z,0.00
2019-01-15T01:05:11.934Z,0.00
2019-01-15T01:06:11.938Z,0.00
2019-01-15T01:07:11.905Z,0.00
2019-01-15T01:08:11.924Z,0.00
2019-01-15T01:09:11.883Z,0.00
2019-01-15T01:10:11.882Z,0.00
2019-01-15T01:11:11.880Z,0.00
2019-01-15T01:12:11.882Z,0.00
2019-01-15T01:13:11.867Z,0.00
2019-01-15T01:14:11.834Z,0.00
2019-01-15T01:15:11.816Z,0.00
2019-01-15T01:16:11.809Z,0.00
2019-01-15T01:17:11.822Z,0.00
2019-01-15T01:18:11.828Z,0.00
2019-01-15T01:19:11.777Z,0.00
2019-01-15T01:20:11.761Z,0.00
2019-01-15T01:21:11.755Z,0.00
2019-01-15T01:22:11.746Z,0.00
2019-01-15T01:23:11.758Z,0.00
2019-01-15T01:24:11.731Z,0.00
2019-01-15T01:25:11.716Z,0.00
2019-01-15T01:26:11.703Z,0.00
2019-01-15T01:27:11.683Z,0.00
2019-01-15T01:28:11.706Z,0.00
2019-01-15T01:29:11.664Z,0.00
2019-01-15T01:30:11.676Z,0.00
2019-01-15T01:31:11.642Z,0.00
2019-01-15T01:32:11.637Z,0.00
2019-01-15T01:33:11.623Z,0.00
2019-01-15T01:34:11.640Z,0.00
2019-01-15T01:35:11.647Z,0.00
2019-01-15T01:36:11.589Z,0.00
2019-01-15T01:37:11.580Z,0.00
2019-01-15T01:38:11.568Z,0.00
2019-01-15T01:39:11.618Z,0.00
2019-01-15T01:40:11.546Z,0.00
2019-01-15T01:41:11.548Z,0.00
2019-01-15T01:42:11.526Z,0.00
2019-01-15T01:43:11.518Z,0.00
2019-01-15T01:44:11.517Z,0.00
2019-01-15T01:45:11.486Z,0.00
2019-01-15T01:46:11.512Z,0.00
2019-01-15T01:47:11.466Z,0.00
2019-01-15T01:48:11.485Z,0.00
2019-01-15T01:49:11.451Z,0.00
2019-01-15T01:50:11.435Z,0.00
2019-01-15T01:51:11.443Z,0.00
2019-01-15T01:52:11.422Z,0.00
2019-01-15T01:53:11.425Z,0.00
2019-01-15T01:54:11.428Z,0.00
2019-01-15T01:55:11.383Z,0.00
2019-01-15T01:56:11.363Z,0.00
2019-01-15T01:57:11.357Z,0.00
2019-01-15T01:58:11.375Z,0.00
2019-01-15T01:59:11.466Z,0.00
2019-01-15T02:00:11.319Z,0.00
2019-01-15T02:01:11.340Z,0.00
2019-01-15T02:02:11.321Z,0.00
2019-01-15T02:03:11.364Z,0.00
2019-01-15T02:04:11.284Z,0.00
2019-01-15T02:05:11.307Z,0.00
2019-01-15T02:06:11.271Z,0.00
2019-01-15T02:07:11.242Z,0.00
2019-01-15T02:08:11.358Z,0.00
2019-01-15T02:09:11.224Z,0.00
2019-01-15T02:10:11.231Z,0.00
2019-01-15T02:11:11.197Z,0.00
2019-01-15T02:12:11.191Z,0.00
2019-01-15T02:13:11.206Z,0.00
2019-01-15T02:14:11.177Z,0.00
2019-01-15T02:15:11.166Z,0.00
2019-01-15T02:16:11.146Z,0.00
2019-01-15T02:17:11.163Z,0.00
2019-01-15T02:18:11.144Z,0.00
2019-01-15T02:19:11.109Z,0.00
2019-01-15T02:20:11.111Z,0.00
2019-01-15T02:21:11.090Z,0.00
2019-01-15T02:22:11.103Z,0.00
2019-01-15T02:23:11.064Z,0.00
2019-01-15T02:24:11.079Z,0.00
2019-01-15T02:25:11.072Z,0.00
2019-01-15T02:26:11.070Z,0.00
2019-01-15T02:27:11.045Z,0.00
2019-01-15T02:28:11.037Z,0.00
2019-01-15T02:29:10.997Z,0.00
2019-01-15T02:30:11.005Z,0.00
2019-01-15T02:31:10.979Z,0.00
2019-01-15T02:32:10.968Z,0.00
2019-01-15T02:33:10.978Z,0.00
2019-01-15T02:34:10.984Z,0.00
2019-01-15T02:35:10.938Z,0.00
2019-01-15T02:36:10.949Z,0.00
2019-01-15T02:37:10.909Z,0.00
2019-01-15T02:38:10.904Z,0.00
2019-01-15T02:39:10.916Z,0.00
2019-01-15T02:40:10.877Z,0.00
2019-01-15T02:41:10.876Z,0.00
2019-01-15T02:42:10.864Z,0.00
2019-01-15T02:43:10.845Z,0.00
2019-01-15T02:44:10.856Z,0.00
2019-01-15T02:45:10.821Z,0.00
2019-01-15T02:46:10.811Z,0.00
2019-01-15T02:47:10.798Z,0.00
2019-01-15T02:48:10.821Z,0.00
2019-01-15T02:49:10.777Z,0.00
2019-01-15T02:50:10.790Z,0.00
2019-01-15T02:51:10.755Z,0.00
2019-01-15T02:52:10.744Z,0.00
2019-01-15T02:53:10.741Z,0.00
2019-01-15T02:54:10.722Z,0.00
2019-01-15T02:55:10.730Z,0.00
2019-01-15T02:56:10.724Z,0.00
2019-01-15T02:57:10.688Z,0.00
2019-01-15T02:58:10.678Z,0.00
2019-01-15T02:59:10.669Z,0.00
2019-01-15T03:00:10.689Z,0.00
2019-01-15T03:01:10.679Z,0.00
2019-01-15T03:02:10.654Z,0.00
2019-01-15T03:03:10.621Z,0.00
2019-01-15T03:04:10.623Z,0.00
2019-01-15T03:05:10.622Z,0.00
2019-01-15T03:06:10.625Z,0.00
2019-01-15T03:07:10.590Z,0.00
2019-01-15T03:08:10.594Z,0.00
2019-01-15T03:09:10.555Z,0.00
2019-01-15T03:10:10.546Z,0.00
2019-01-15T03:11:10.562Z,0.00
2019-01-15T03:12:10.530Z,0.00
2019-01-15T03:13:10.512Z,0.00
2019-01-15T03:14:18.549Z,0.00
2019-01-15T03:15:19.063Z,0.00
2019-01-15T03:16:19.041Z,0.00
2019-01-15T03:17:10.471Z,0.00
2019-01-15T03:18:18.519Z,0.00
2019-01-15T03:19:10.447Z,0.00
2019-01-15T03:20:10.432Z,0.00
2019-01-15T03:21:10.422Z,0.00
2019-01-15T03:22:10.419Z,0.00
2019-01-15T03:23:10.432Z,0.00
2019-01-15T03:24:19.440Z,0.00
2019-01-15T03:25:20.365Z,0.00
2019-01-15T03:26:10.371Z,0.00
2019-01-15T03:27:10.379Z,0.00
2019-01-15T03:28:10.344Z,0.00
2019-01-15T03:29:10.369Z,0.00
2019-01-15T03:30:10.336Z,0.00
2019-01-15T03:31:10.340Z,0.00
2019-01-15T03:32:10.341Z,0.00
2019-01-15T03:33:10.289Z,0.00
2019-01-15T03:34:10.280Z,0.00
2019-01-15T03:35:10.270Z,0.00
2019-01-15T03:36:10.287Z,0.00
2019-01-15T03:37:10.249Z,0.00
2019-01-15T03:38:10.236Z,0.00
2019-01-15T03:39:10.224Z,0.00
2019-01-15T03:40:10.212Z,0.00
2019-01-15T03:41:10.221Z,0.00
2019-01-15T03:42:10.220Z,0.00
2019-01-15T03:43:10.180Z,0.00
2019-01-15T03:44:10.178Z,0.00
2019-01-15T03:45:10.159Z,0.00
2019-01-15T03:46:10.178Z,0.00
2019-01-15T03:47:10.135Z,0.00
2019-01-15T03:48:10.126Z,0.00
2019-01-15T03:49:10.113Z,0.00
2019-01-15T03:50:10.108Z,0.00
2019-01-15T03:51:10.126Z,0.00
2019-01-15T03:52:10.111Z,0.00
2019-01-15T03:53:10.088Z,0.00
2019-01-15T03:54:10.067Z,0.00
2019-01-15T03:55:10.049Z,0.00
2019-01-15T03:56:10.046Z,0.00
2019-01-15T03:57:10.069Z,0.00
2019-01-15T03:58:10.018Z,0.00
2019-01-15T03:59:10.007Z,0.00
2019-01-15T04:00:09.991Z,0.00
2019-01-15T04:01:09.982Z,0.00
2019-01-15T04:02:09.995Z,0.00
2019-01-15T04:03:09.989Z,0.00
2019-01-15T04:04:09.961Z,0.00
2019-01-15T04:05:09.981Z,0.00
2019-01-15T04:06:09.924Z,0.00
2019-01-15T04:07:09.916Z,0.00
2019-01-15T04:08:09.905Z,0.00
2019-01-15T04:09:09.891Z,0.00
2019-01-15T04:10:09.915Z,0.00
2019-01-15T04:11:09.895Z,0.00
2019-01-15T04:12:09.889Z,0.00
2019-01-15T04:13:11.478Z,0.00
2019-01-15T04:14:09.835Z,0.00
2019-01-15T04:15:09.830Z,0.00
2019-01-15T04:16:09.823Z,0.00
2019-01-15T04:17:09.829Z,0.00
2019-01-15T04:18:09.794Z,0.00
2019-01-15T04:19:09.808Z,0.00
2019-01-15T04:20:09.797Z,0.00
2019-01-15T04:21:09.785Z,0.00
2019-01-15T04:22:09.756Z,0.00
2019-01-15T04:23:09.748Z,0.00
2019-01-15T04:24:09.729Z,0.00
2019-01-15T04:25:09.714Z,0.00
2019-01-15T04:26:09.720Z,0.00
2019-01-15T04:27:09.698Z,0.00
2019-01-15T04:28:09.760Z,0.00
2019-01-15T04:29:09.689Z,0.00
2019-01-15T04:30:09.694Z,0.00
2019-01-15T04:31:09.680Z,0.00
2019-01-15T04:32:09.643Z,0.00
2019-01-15T04:33:09.629Z,0.00
2019-01-15T04:34:09.639Z,0.00
2019-01-15T04:35:09.607Z,0.00
2019-01-15T04:36:09.598Z,0.00
2019-01-15T04:37:09.591Z,0.00
2019-01-15T04:38:09.604Z,0.00
2019-01-15T04:39:09.565Z,0.00
2019-01-15T04:40:09.551Z,0.00
2019-01-15T04:41:09.540Z,0.00
2019-01-15T04:42:09.527Z,0.00
2019-01-15T04:43:09.519Z,0.00
2019-01-15T04:44:09.541Z,0.00
2019-01-15T04:45:09.498Z,0.00
2019-01-15T04:46:09.489Z,0.00
2019-01-15T04:47:09.472Z,0.00
2019-01-15T04:48:09.463Z,0.00
2019-01-15T04:49:09.469Z,0.00
2019-01-15T04:50:09.458Z,0.00
2019-01-15T04:51:09.433Z,0.00
2019-01-15T04:52:09.418Z,0.00
2019-01-15T04:53:09.444Z,0.00
2019-01-15T04:54:09.393Z,0.00
2019-01-15T04:55:09.387Z,0.00
2019-01-15T04:56:09.383Z,0.00
2019-01-15T04:57:09.370Z,0.00
2019-01-15T04:58:09.379Z,0.00
2019-01-15T04:59:09.339Z,0.00
2019-01-15T05:00:09.328Z,0.00
2019-01-15T05:01:09.318Z,0.00
2019-01-15T05:02:09.339Z,0.00
2019-01-15T05:03:09.314Z,0.00
2019-01-15T05:04:09.287Z,0.00
2019-01-15T05:05:09.276Z,0.00
2019-01-15T05:06:09.264Z,0.00
2019-01-15T05:07:09.277Z,0.00
2019-01-15T05:08:09.267Z,0.00
2019-01-15T05:09:09.237Z,0.00
2019-01-15T05:10:09.222Z,0.00
2019-01-15T05:11:09.244Z,0.00
2019-01-15T05:12:09.200Z,0.00
2019-01-15T05:13:09.184Z,0.00
2019-01-15T05:14:09.191Z,0.00
2019-01-15T05:15:09.170Z,0.00
2019-01-15T05:16:09.177Z,0.00
2019-01-15T05:17:09.138Z,0.00
2019-01-15T05:18:09.151Z,0.00
2019-01-15T05:19:09.121Z,0.00
2019-01-15T05:20:09.143Z,0.00
2019-01-15T05:21:09.097Z,0.00
2019-01-15T05:22:09.118Z,0.00
2019-01-15T05:23:09.096Z,0.00
2019-01-15T05:24:09.110Z,0.00
2019-01-15T05:25:09.054Z,0.00
2019-01-15T05:26:09.047Z,0.00
2019-01-15T05:27:09.027Z,0.00
2019-01-15T05:28:09.037Z,0.00
2019-01-15T05:29:09.011Z,0.00
2019-01-15T05:30:09.000Z,0.00
2019-01-15T05:31:09.017Z,0.00
2019-01-15T05:32:08.991Z,0.00
2019-01-15T05:33:08.999Z,0.00
2019-01-15T05:34:08.955Z,0.00
2019-01-15T05:35:08.942Z,0.00
2019-01-15T05:36:08.928Z,0.00
2019-01-15T05:37:08.918Z,0.00
2019-01-15T05:38:08.953Z,0.00
2019-01-15T05:39:08.919Z,0.00
2019-01-15T05:40:08.887Z,0.00
2019-01-15T05:41:08.908Z,0.00
2019-01-15T05:42:08.865Z,0.00
2019-01-15T05:43:08.882Z,0.00
2019-01-15T05:44:10.174Z,0.00
2019-01-15T05:45:08.832Z,0.00
2019-01-15T05:46:08.839Z,0.00
2019-01-15T05:47:08.814Z,0.00
2019-01-15T05:48:08.797Z,0.00
2019-01-15T05:49:08.792Z,0.00
2019-01-15T05:50:08.800Z,0.00
2019-01-15T05:51:08.804Z,0.00
2019-01-15T05:52:08.756Z,0.00
2019-01-15T05:53:08.745Z,0.00
2019-01-15T05:54:08.733Z,0.00
2019-01-15T05:55:08.719Z,0.00
2019-01-15T05:56:09.596Z,0.00
2019-01-15T05:57:08.698Z,0.00
2019-01-15T05:58:08.687Z,0.00
2019-01-15T05:59:08.673Z,0.00
2019-01-15T06:00:08.687Z,0.00
2019-01-15T06:01:08.666Z,0.00
2019-01-15T06:02:08.643Z,0.00
2019-01-15T06:03:08.701Z,0.00
2019-01-15T06:04:08.640Z,0.00
2019-01-15T06:05:08.662Z,0.00
2019-01-15T06:06:08.597Z,0.00
2019-01-15T06:07:08.597Z,0.00
2019-01-15T06:08:08.593Z,0.00
2019-01-15T06:09:08.582Z,0.00
2019-01-15T06:10:08.553Z,0.00
2019-01-15T06:11:08.568Z,0.00
2019-01-15T06:12:08.533Z,0.00
2019-01-15T06:13:08.544Z,0.00
2019-01-15T06:14:08.508Z,0.00
2019-01-15T06:15:08.502Z,0.00
2019-01-15T06:16:08.491Z,0.00
2019-01-15T06:17:08.474Z,0.00
2019-01-15T06:18:08.496Z,0.00
2019-01-15T06:19:08.457Z,0.00
2019-01-15T06:20:08.442Z,0.00
2019-01-15T06:21:08.429Z,0.00
2019-01-15T06:22:08.457Z,0.00
2019-01-15T06:23:08.406Z,0.00
2019-01-15T06:24:08.401Z,0.00
2019-01-15T06:25:08.391Z,0.00
2019-01-15T06:26:08.415Z,0.00
2019-01-15T06:27:08.362Z,0.00
2019-01-15T06:28:08.363Z,0.00
2019-01-15T06:29:08.363Z,0.00
2019-01-15T06:30:08.334Z,0.00
2019-01-15T06:31:08.322Z,0.00
2019-01-15T06:32:08.306Z,0.00
2019-01-15T06:33:08.324Z,0.00
2019-01-15T06:34:08.292Z,0.00
2019-01-15T06:35:08.277Z,0.00
2019-01-15T06:36:08.273Z,0.00
2019-01-15T06:37:08.281Z,0.00
2019-01-15T06:38:08.242Z,0.00
2019-01-15T06:39:08.232Z,0.00
2019-01-15T06:40:08.238Z,0.00
2019-01-15T06:41:08.214Z,0.00
2019-01-15T06:42:08.244Z,0.00
2019-01-15T06:43:08.185Z,0.00
2019-01-15T06:44:08.174Z,0.00
2019-01-15T06:45:16.710Z,0.00
2019-01-15T06:46:16.695Z,0.00
2019-01-15T06:47:16.307Z,0.00
2019-01-15T06:48:08.147Z,0.00
2019-01-15T06:49:08.122Z,0.00
2019-01-15T06:50:08.111Z,0.00
2019-01-15T06:51:08.100Z,0.00
2019-01-15T06:52:08.109Z,0.00
2019-01-15T06:53:08.126Z,0.00
2019-01-15T06:54:08.069Z,0.00
2019-01-15T06:55:08.072Z,0.00
2019-01-15T06:56:08.041Z,0.00
2019-01-15T06:57:08.102Z,0.00
2019-01-15T06:58:08.050Z,0.00
2019-01-15T06:59:08.018Z,0.00
2019-01-15T07:00:08.033Z,0.00
2019-01-15T07:01:07.992Z,0.00
2019-01-15T07:02:07.980Z,0.00
2019-01-15T07:03:08.184Z,0.00
2019-01-15T07:04:07.984Z,0.00
2019-01-15T07:05:07.960Z,0.00
2019-01-15T07:06:08.005Z,0.00
2019-01-15T07:07:07.979Z,0.00
2019-01-15T07:08:07.946Z,0.00
2019-01-15T07:09:07.923Z,0.00
2019-01-15T07:10:07.890Z,0.00
2019-01-15T07:11:07.906Z,0.00
2019-01-15T07:12:07.902Z,0.00
2019-01-15T07:13:07.873Z,0.00
2019-01-15T07:14:07.847Z,0.00
2019-01-15T07:15:07.889Z,0.00
2019-01-15T07:16:07.918Z,0.00
2019-01-15T07:17:07.851Z,0.00
2019-01-15T07:18:07.797Z,0.00
2019-01-15T07:19:07.789Z,0.00
2019-01-15T07:20:07.777Z,0.00
2019-01-15T07:21:07.789Z,0.00
2019-01-15T07:22:07.780Z,0.00
2019-01-15T07:23:07.819Z,0.00
2019-01-15T07:24:07.735Z,0.00
2019-01-15T07:25:07.734Z,0.00
2019-01-15T07:26:07.740Z,0.00
2019-01-15T07:27:07.706Z,0.00
2019-01-15T07:28:07.724Z,0.00
2019-01-15T07:29:07.680Z,0.00
2019-01-15T07:30:07.666Z,0.00
2019-01-15T07:31:07.685Z,0.00
2019-01-15T07:32:07.647Z,0.00
2019-01-15T07:33:07.660Z,0.00
2019-01-15T07:34:07.655Z,0.00
2019-01-15T07:35:07.650Z,0.00
2019-01-15T07:36:07.605Z,0.00
2019-01-15T07:37:07.586Z,0.00
2019-01-15T07:38:07.601Z,0.00
2019-01-15T07:39:07.575Z,0.00
2019-01-15T07:40:07.556Z,0.00
2019-01-15T07:41:07.547Z,0.00
2019-01-15T07:42:07.553Z,0.00
2019-01-15T07:43:07.558Z,0.00
2019-01-15T07:44:07.514Z,5.62
2019-01-15T07:45:07.509Z,5.62
2019-01-15T07:46:07.530Z,5.62
2019-01-15T07:47:07.474Z,0.00
2019-01-15T07:48:07.503Z,0.00
2019-01-15T07:49:07.454Z,0.00
2019-01-15T07:50:07.447Z,5.62
2019-01-15T07:51:07.447Z,5.62
2019-01-15T07:52:07.419Z,5.62
2019-01-15T07:53:07.434Z,5.62
2019-01-15T07:54:07.401Z,5.62
2019-01-15T07:55:07.410Z,5.62
2019-01-15T07:56:07.404Z,5.62
2019-01-15T07:57:07.392Z,5.62
2019-01-15T07:58:07.353Z,5.62
2019-01-15T07:59:07.368Z,5.62
2019-01-15T08:00:07.368Z,5.62
2019-01-15T08:01:07.584Z,5.62
2019-01-15T08:02:07.329Z,5.62
2019-01-15T08:03:07.321Z,5.62
2019-01-15T08:04:07.350Z,5.62
2019-01-15T08:05:07.330Z,5.62
2019-01-15T08:06:07.297Z,5.62
2019-01-15T08:07:07.262Z,5.62
2019-01-15T08:08:07.248Z,5.62
2019-01-15T08:09:07.265Z,5.62
2019-01-15T08:10:07.296Z,5.62
2019-01-15T08:11:07.239Z,5.62
2019-01-15T08:12:07.201Z,5.62
2019-01-15T08:13:07.195Z,5.62
2019-01-15T08:14:11.929Z,5.62
2019-01-15T08:15:08.183Z,5.62
2019-01-15T08:16:07.182Z,5.62
2019-01-15T08:17:07.175Z,5.62
2019-01-15T08:18:07.157Z,5.62
2019-01-15T08:19:07.128Z,5.62
2019-01-15T08:20:07.155Z,5.62
2019-01-15T08:21:07.101Z,5.62
2019-01-15T08:22:07.119Z,5.62
2019-01-15T08:23:07.090Z,5.62
2019-01-15T08:24:07.072Z,5.62
2019-01-15T08:25:07.066Z,5.62
2019-01-15T08:26:07.069Z,5.62
2019-01-15T08:27:07.037Z,5.62
2019-01-15T08:28:07.082Z,5.62
2019-01-15T08:29:07.041Z,5.62
2019-01-15T08:30:07.055Z,5.62
2019-01-15T08:31:07.000Z,5.62
2019-01-15T08:32:07.003Z,5.62
2019-01-15T08:33:06.971Z,5.62
2019-01-15T08:34:06.958Z,5.62
2019-01-15T08:35:06.988Z,5.62
2019-01-15T08:36:06.933Z,5.62
2019-01-15T08:37:06.941Z,5.62
2019-01-15T08:38:06.916Z,5.62
2019-01-15T08:39:06.898Z,5.62
2019-01-15T08:40:06.921Z,5.62
2019-01-15T08:41:06.875Z,5.62
2019-01-15T08:42:06.894Z,5.62
2019-01-15T08:43:06.876Z,5.62
2019-01-15T08:44:06.867Z,5.62
2019-01-15T08:45:06.842Z,5.62
2019-01-15T08:46:06.831Z,11.25
2019-01-15T08:47:06.808Z,11.25
2019-01-15T08:48:06.829Z,11.25
2019-01-15T08:49:06.795Z,11.25
2019-01-15T08:50:06.822Z,11.25
2019-01-15T08:51:06.769Z,11.25
2019-01-15T08:52:06.755Z,11.25
2019-01-15T08:53:06.774Z,11.25
2019-01-15T08:54:06.774Z,11.25
2019-01-15T08:55:06.720Z,11.25
2019-01-15T08:56:06.760Z,11.25
2019-01-15T08:57:06.699Z,11.25
2019-01-15T08:58:06.696Z,11.25
2019-01-15T08:59:06.705Z,11.25
2019-01-15T09:00:06.678Z,11.25
2019-01-15T09:01:06.661Z,11.25
2019-01-15T09:02:06.643Z,11.25
2019-01-15T09:03:06.659Z,11.25
2019-01-15T09:04:06.629Z,11.25
2019-01-15T09:05:06.611Z,11.25
2019-01-15T09:06:06.634Z,11.25
2019-01-15T09:07:06.610Z,11.25
2019-01-15T09:08:06.620Z,11.25
2019-01-15T09:09:06.567Z,11.25
2019-01-15T09:10:06.556Z,11.25
2019-01-15T09:11:06.545Z,11.25
2019-01-15T09:12:06.539Z,11.25
2019-01-15T09:13:06.559Z,11.25
2019-01-15T09:14:06.509Z,11.25
2019-01-15T09:15:06.506Z,11.25
2019-01-15T09:16:06.488Z,11.25
2019-01-15T09:17:10.913Z,11.25
2019-01-15T09:18:06.492Z,11.25
2019-01-15T09:19:06.456Z,11.25
2019-01-15T09:20:06.442Z,11.25
2019-01-15T09:21:06.463Z,11.25
2019-01-15T09:22:06.420Z,16.88
2019-01-15T09:23:06.409Z,16.88
2019-01-15T09:24:06.427Z,16.88
2019-01-15T09:25:06.424Z,16.88
2019-01-15T09:26:06.376Z,16.88
2019-01-15T09:27:06.363Z,16.88
2019-01-15T09:28:06.364Z,22.50
2019-01-15T09:29:06.346Z,22.50
2019-01-15T09:30:06.367Z,16.88
2019-01-15T09:31:06.320Z,16.88
2019-01-15T09:32:06.309Z,16.88
2019-01-15T09:33:06.304Z,16.88
2019-01-15T09:34:06.493Z,16.88
2019-01-15T09:35:06.318Z,16.88
2019-01-15T09:36:06.275Z,16.88
2019-01-15T09:37:06.255Z,16.88
2019-01-15T09:38:06.254Z,22.50
2019-01-15T09:39:06.255Z,22.50
2019-01-15T09:40:06.255Z,22.50
2019-01-15T09:41:06.214Z,22.50
2019-01-15T09:42:06.205Z,22.50
2019-01-15T09:43:06.219Z,28.12
2019-01-15T09:44:06.191Z,28.12
2019-01-15T09:45:06.165Z,28.12
2019-01-15T09:46:06.164Z,28.12
2019-01-15T09:47:06.182Z,28.12
2019-01-15T09:48:06.132Z,28.12
2019-01-15T09:49:06.128Z,28.12
2019-01-15T09:50:06.138Z,22.50
2019-01-15T09:51:06.102Z,22.50
2019-01-15T09:52:13.150Z,22.50
2019-01-15T09:53:07.130Z,22.50
2019-01-15T09:54:06.071Z,22.50
2019-01-15T09:55:06.092Z,28.12
2019-01-15T09:56:06.052Z,28.12
2019-01-15T09:57:06.043Z,28.12
2019-01-15T09:58:06.017Z,28.12
2019-01-15T09:59:06.008Z,28.12
2019-01-15T10:00:06.018Z,28.12
2019-01-15T10:01:06.014Z,28.12
2019-01-15T10:02:05.991Z,28.12
2019-01-15T10:03:05.985Z,28.12
2019-01-15T10:04:05.949Z,33.75
2019-01-15T10:05:05.940Z,33.75
2019-01-15T10:06:05.930Z,28.12
2019-01-15T10:07:05.941Z,28.12
2019-01-15T10:08:05.919Z,28.12
2019-01-15T10:09:05.938Z,28.12
2019-01-15T10:10:05.885Z,33.75
2019-01-15T10:11:05.889Z,33.75
2019-01-15T10:12:05.861Z,33.75
2019-01-15T10:13:05.870Z,33.75
2019-01-15T10:14:05.843Z,33.75
2019-01-15T10:15:05.836Z,33.75
2019-01-15T10:16:05.853Z,28.12
2019-01-15T10:17:05.813Z,28.12
2019-01-15T10:18:05.870Z,33.75
2019-01-15T10:19:05.812Z,39.38
2019-01-15T10:20:05.779Z,33.75
2019-01-15T10:21:05.758Z,33.75
2019-01-15T10:22:05.775Z,28.12
2019-01-15T10:23:05.736Z,28.12
2019-01-15T10:24:05.725Z,28.12
2019-01-15T10:25:05.720Z,28.12
2019-01-15T10:26:05.733Z,28.12
2019-01-15T10:27:05.691Z,33.75
2019-01-15T10:28:05.681Z,33.75
2019-01-15T10:29:05.668Z,33.75
2019-01-15T10:30:05.658Z,39.38
2019-01-15T10:31:05.691Z,39.38
2019-01-15T10:32:05.658Z,39.38
2019-01-15T10:33:05.624Z,33.75
2019-01-15T10:34:05.613Z,28.12
2019-01-15T10:35:05.628Z,28.12
2019-01-15T10:36:05.602Z,22.50
2019-01-15T10:37:05.585Z,22.50
2019-01-15T10:38:05.583Z,16.88
2019-01-15T10:39:05.587Z,16.88
2019-01-15T10:40:05.553Z,22.50
2019-01-15T10:41:05.563Z,22.50
2019-01-15T10:42:05.528Z,22.50
2019-01-15T10:43:05.520Z,22.50
2019-01-15T10:44:05.501Z,22.50
2019-01-15T10:45:05.543Z,22.50
2019-01-15T10:46:05.506Z,22.50
2019-01-15T10:47:05.473Z,22.50
2019-01-15T10:48:05.459Z,22.50
2019-01-15T10:49:05.456Z,22.50
2019-01-15T10:50:05.434Z,22.50
2019-01-15T10:51:05.444Z,22.50
2019-01-15T10:52:05.434Z,22.50
2019-01-15T10:53:05.403Z,22.50
2019-01-15T10:54:05.404Z,22.50
2019-01-15T10:55:05.390Z,22.50
2019-01-15T10:56:05.413Z,22.50
2019-01-15T10:57:05.358Z,22.50
2019-01-15T10:58:05.344Z,22.50
2019-01-15T10:59:05.335Z,28.12
2019-01-15T11:00:05.354Z,28.12
2019-01-15T11:01:05.326Z,22.50
2019-01-15T11:02:05.299Z,28.12
2019-01-15T11:03:05.292Z,28.12
2019-01-15T11:04:05.280Z,33.75
2019-01-15T11:05:05.293Z,33.75
2019-01-15T11:06:05.269Z,33.75
2019-01-15T11:07:05.269Z,39.38
2019-01-15T11:08:05.241Z,39.38
2019-01-15T11:09:05.235Z,33.75
2019-01-15T11:10:05.213Z,33.75
2019-01-15T11:11:05.237Z,33.75
2019-01-15T11:12:05.195Z,33.75
2019-01-15T11:13:05.182Z,33.75
2019-01-15T11:14:05.167Z,33.75
2019-01-15T11:15:05.157Z,39.38
2019-01-15T11:16:05.166Z,33.75
2019-01-15T11:17:05.138Z,39.38
2019-01-15T11:18:05.150Z,39.38
2019-01-15T11:19:05.178Z,45.00
2019-01-15T11:20:05.104Z,39.38
2019-01-15T11:21:05.086Z,45.00
2019-01-15T11:22:05.081Z,45.00
2019-01-15T11:23:05.095Z,45.00
2019-01-15T11:24:05.096Z,39.38
2019-01-15T11:25:05.047Z,39.38
2019-01-15T11:26:05.032Z,33.75
2019-01-15T11:27:05.083Z,33.75
2019-01-15T11:28:05.011Z,33.75
2019-01-15T11:29:05.023Z,33.75
2019-01-15T11:30:05.011Z,33.75
2019-01-15T11:31:04.991Z,33.75
2019-01-15T11:32:04.967Z,33.75
2019-01-15T11:33:04.955Z,33.75
2019-01-15T11:34:04.971Z,39.38
2019-01-15T11:35:04.937Z,39.38
2019-01-15T11:36:04.924Z,39.38
2019-01-15T11:37:04.911Z,39.38
2019-01-15T11:38:04.903Z,39.38
2019-01-15T11:39:04.911Z,39.38
2019-01-15T11:40:04.915Z,39.38
2019-01-15T11:41:04.873Z,33.75
2019-01-15T11:42:04.852Z,33.75
2019-01-15T11:43:04.883Z,33.75
2019-01-15T11:44:04.830Z,28.12
2019-01-15T11:45:04.825Z,33.75
2019-01-15T11:46:04.810Z,33.75
2019-01-15T11:47:04.823Z,28.12
2019-01-15T11:48:04.841Z,28.12
2019-01-15T11:49:04.827Z,28.12
2019-01-15T11:50:04.801Z,28.12
2019-01-15T11:51:04.757Z,28.12
2019-01-15T11:52:04.763Z,28.12
2019-01-15T11:53:04.760Z,28.12
2019-01-15T11:54:04.725Z,28.12
2019-01-15T11:55:04.763Z,28.12
2019-01-15T11:56:04.699Z,28.12
2019-01-15T11:57:04.702Z,28.12
2019-01-15T11:58:04.681Z,28.12
2019-01-15T11:59:04.668Z,28.12
2019-01-15T12:00:04.691Z,33.75
2019-01-15T12:01:04.647Z,33.75
2019-01-15T12:02:04.630Z,33.75
2019-01-15T12:03:04.626Z,33.75
2019-01-15T12:04:04.630Z,28.12
2019-01-15T12:05:04.633Z,28.12
2019-01-15T12:06:04.643Z,28.12
2019-01-15T12:07:04.605Z,28.12
2019-01-15T12:08:04.567Z,33.75
2019-01-15T12:09:04.560Z,33.75
2019-01-15T12:10:04.552Z,39.38
2019-01-15T12:11:04.527Z,33.75
2019-01-15T12:12:04.546Z,33.75
2019-01-15T12:13:04.548Z,28.12
2019-01-15T12:14:04.500Z,28.12
2019-01-15T12:15:10.730Z,28.12
2019-01-15T12:16:05.472Z,22.50
2019-01-15T12:17:04.509Z,22.50
2019-01-15T12:18:04.487Z,22.50
2019-01-15T12:19:04.455Z,22.50
2019-01-15T12:20:04.432Z,22.50
2019-01-15T12:21:04.437Z,22.50
2019-01-15T12:22:04.446Z,22.50
2019-01-15T12:23:04.397Z,22.50
2019-01-15T12:24:05.262Z,28.12
2019-01-15T12:25:04.392Z,28.12
2019-01-15T12:26:04.406Z,28.12
2019-01-15T12:27:04.375Z,28.12
2019-01-15T12:28:04.340Z,28.12
2019-01-15T12:29:04.328Z,28.12
2019-01-15T12:30:04.321Z,28.12
2019-01-15T12:31:04.321Z,28.12
2019-01-15T12:32:04.299Z,28.12
2019-01-15T12:33:04.343Z,28.12
2019-01-15T12:34:04.278Z,22.50
2019-01-15T12:35:04.312Z,28.12
2019-01-15T12:36:04.251Z,28.12
2019-01-15T12:37:04.276Z,28.12
2019-01-15T12:38:04.240Z,28.12
2019-01-15T12:39:04.217Z,28.12
2019-01-15T12:40:04.247Z,33.75
2019-01-15T12:41:04.193Z,33.75
2019-01-15T12:42:04.196Z,33.75
2019-01-15T12:43:04.185Z,28.12
2019-01-15T12:44:04.159Z,33.75
2019-01-15T12:45:04.151Z,33.75
2019-01-15T12:46:04.190Z,28.12
2019-01-15T12:47:04.130Z,28.12
2019-01-15T12:48:04.118Z,28.12
2019-01-15T12:49:04.103Z,28.12
2019-01-15T12:50:04.102Z,28.12
2019-01-15T12:51:04.146Z,28.12
2019-01-15T12:52:04.080Z,33.75
2019-01-15T12:53:04.054Z,33.75
2019-01-15T12:54:04.049Z,28.12
2019-01-15T12:55:04.039Z,33.75
2019-01-15T12:56:04.044Z,33.75
2019-01-15T12:57:04.092Z,28.12
2019-01-15T12:58:03.998Z,28.12
2019-01-15T12:59:03.987Z,28.12
2019-01-15T13:00:03.984Z,28.12
2019-01-15T13:01:03.968Z,33.75
2019-01-15T13:02:04.010Z,33.75
2019-01-15T13:03:03.952Z,33.75
2019-01-15T13:04:03.935Z,39.38
2019-01-15T13:05:03.933Z,39.38
2019-01-15T13:06:03.915Z,39.38
2019-01-15T13:07:03.916Z,33.75
2019-01-15T13:08:03.926Z,33.75
2019-01-15T13:09:03.936Z,33.75